createdAt,value
2022-12-22T00:01:09.258Z,99658.22
2022-12-22T00:06:43.639Z,99651.47
2022-12-22T00:12:27.597Z,99645.75
2022-12-22T00:17:49.663Z,99643.94
2022-12-22T00:23:18.601Z,99639.03
2022-12-22T00:28:44.320Z,99624.91
2022-12-22T00:34:19.579Z,99620.38
2022-12-22T00:39:44.825Z,99607.03
2022-12-22T00:45:17.868Z,99602.38
2022-12-22T00:50:56.431Z,99597.69
2022-12-22T00:56:17.864Z,99595.91
2022-12-22T01:01:42.762Z,99579.97
2022-12-22T01:07:20.551Z,99558.03
2022-12-22T01:12:48.212Z,99546.91
2022-12-22T01:18:13.306Z,99534.81
2022-12-22T01:23:41.946Z,99522.44
2022-12-22T01:29:16.318Z,99520.25
2022-12-22T01:35:01.870Z,99516.13
2022-12-22T01:40:38.752Z,99509.56
2022-12-22T01:46:06.415Z,99498.13
2022-12-22T01:51:38.118Z,99489.84
2022-12-22T01:57:12.225Z,99483.94
2022-12-22T02:02:37.762Z,99479.78
2022-12-22T02:08:20.226Z,99470.25
2022-12-22T02:13:52.819Z,99456.50
2022-12-22T02:19:19.066Z,99452.50
2022-12-22T02:24:54.555Z,99435.28
2022-12-22T02:30:28.504Z,99430.06
2022-12-22T02:35:58.697Z,99431.25
2022-12-22T02:41:34.333Z,99419.13
2022-12-22T02:47:12.815Z,99416.91
2022-12-22T02:52:41.709Z,99404.50
2022-12-22T02:58:09.501Z,99414.34
2022-12-22T03:03:35.266Z,99400.03
2022-12-22T03:08:57.140Z,99389.97
2022-12-22T03:14:20.997Z,99383.47
2022-12-22T03:19:45.487Z,99372.84
2022-12-22T03:25:07.464Z,99368.13
2022-12-22T03:30:13.501Z,99361.81
2022-12-22T03:35:23.055Z,99357.06
2022-12-22T03:40:27.120Z,99355.59
2022-12-22T03:45:47.798Z,99354.09
2022-12-22T03:51:01.774Z,99342.66
2022-12-22T03:56:09.817Z,99350.69
2022-12-22T04:01:15.879Z,99338.41
2022-12-22T04:06:24.291Z,99331.25
2022-12-22T04:11:45.283Z,99325.03
2022-12-22T04:16:51.509Z,99323.09
2022-12-22T04:21:58.552Z,99326.53
2022-12-22T04:27:06.369Z,99320.34
2022-12-22T04:32:10.745Z,99330.13
2022-12-22T04:37:17.981Z,99316.88
2022-12-22T04:42:22.401Z,99312.19
2022-12-22T04:47:28.470Z,99306.81
2022-12-22T04:52:44.320Z,99302.25
2022-12-22T04:57:52.835Z,99289.00
2022-12-22T05:03:14.000Z,99279.41
2022-12-22T05:08:22.414Z,99278.28
2022-12-22T05:13:26.833Z,99268.16
2022-12-22T05:18:36.212Z,99264.56
2022-12-22T05:23:43.296Z,99253.81
2022-12-22T05:28:56.743Z,99253.00
2022-12-22T05:34:08.676Z,99248.44
2022-12-22T05:39:16.099Z,99243.34
2022-12-22T05:44:34.943Z,99233.34
2022-12-22T05:49:45.328Z,99226.28
2022-12-22T05:54:52.066Z,99218.75
2022-12-22T06:00:01.443Z,99213.69
2022-12-22T06:05:10.513Z,99208.78
2022-12-22T06:10:20.589Z,99202.50
2022-12-22T06:15:25.511Z,99196.75
2022-12-22T06:20:43.923Z,99191.41
2022-12-22T06:25:58.560Z,99186.63
2022-12-22T06:31:03.224Z,99187.09
2022-12-22T06:36:10.514Z,99180.06
2022-12-22T06:41:42.220Z,99184.47
2022-12-22T06:46:58.345Z,99170.91
2022-12-22T06:52:09.648Z,99168.97
2022-12-22T06:57:15.461Z,99171.41
2022-12-22T07:02:26.459Z,99165.06
2022-12-22T07:07:43.681Z,99154.78
2022-12-22T07:13:20.641Z,99157.88
2022-12-22T07:18:33.637Z,99156.09
2022-12-22T07:23:46.345Z,99154.66
2022-12-22T07:28:57.927Z,99152.28
2022-12-22T07:34:02.525Z,99142.63
2022-12-22T07:39:08.451Z,99151.63
2022-12-22T07:44:17.208Z,99150.13
2022-12-22T07:49:39.626Z,99137.22
2022-12-22T07:54:52.038Z,99133.94
2022-12-22T08:00:00.826Z,99126.09
2022-12-22T08:05:05.622Z,99121.56
2022-12-22T08:10:14.830Z,99104.22
2022-12-22T08:15:27.090Z,99116.31
2022-12-22T08:20:45.793Z,99101.91
2022-12-22T08:25:58.576Z,99106.84
2022-12-22T08:31:13.695Z,99102.28
2022-12-22T08:36:20.987Z,99088.22
2022-12-22T08:41:41.730Z,99088.06
2022-12-22T08:52:12.846Z,99075.16
2022-12-22T08:57:30.085Z,99071.88
2022-12-22T09:02:45.483Z,99071.38
2022-12-22T09:07:50.428Z,99066.53
2022-12-22T09:12:57.926Z,99067.97
2022-12-22T09:18:08.659Z,99059.66
2022-12-22T09:23:18.747Z,99058.22
2022-12-22T09:28:25.128Z,99049.06
2022-12-22T09:33:31.332Z,99044.66
2022-12-22T09:38:35.329Z,99037.94
2022-12-22T09:43:49.730Z,99038.31
2022-12-22T09:48:57.646Z,99027.66
2022-12-22T09:54:06.358Z,99022.78
2022-12-22T09:59:19.322Z,99027.50
2022-12-22T10:04:45.447Z,99014.78
2022-12-22T10:09:54.034Z,99014.63
2022-12-22T10:15:01.536Z,99002.19
2022-12-22T10:20:25.604Z,98993.19
2022-12-22T10:26:00.540Z,98993.69
2022-12-22T10:31:26.484Z,98991.09
2022-12-22T10:36:38.286Z,98982.25
2022-12-22T10:41:55.348Z,98988.13
2022-12-22T10:47:16.966Z,98994.50
2022-12-22T10:52:32.843Z,98985.47
2022-12-22T10:57:44.952Z,98981.53
2022-12-22T11:02:58.723Z,98972.97
2022-12-22T11:08:21.899Z,98969.66
2022-12-22T11:14:08.059Z,98968.59
2022-12-22T11:19:43.488Z,98956.78
2022-12-22T11:25:06.634Z,98944.94
2022-12-22T11:30:19.352Z,98956.34
2022-12-22T11:35:56.905Z,98951.88
2022-12-22T11:41:19.231Z,98941.00
2022-12-22T11:46:34.719Z,98934.53
2022-12-22T11:52:08.707Z,98938.72
2022-12-22T11:57:29.067Z,98939.03
2022-12-22T12:03:08.352Z,98942.75
2022-12-22T12:08:34.728Z,98945.91
2022-12-22T12:13:54.233Z,98941.00
2022-12-22T12:19:37.164Z,98938.06
2022-12-22T12:24:56.809Z,98953.13
2022-12-22T12:30:37.002Z,98947.72
2022-12-22T12:35:45.059Z,98951.16
2022-12-22T12:41:01.726Z,98961.19
2022-12-22T12:46:54.401Z,98971.72
2022-12-22T12:52:07.872Z,98972.56
2022-12-22T13:04:02.355Z,98983.94
2022-12-22T13:14:59.752Z,98981.72
2022-12-22T13:20:15.272Z,98995.50
2022-12-22T13:25:24.871Z,98996.03
2022-12-22T13:30:34.667Z,99006.66
2022-12-22T13:35:48.479Z,99020.28
2022-12-22T13:41:00.623Z,99040.28
2022-12-22T13:46:15.127Z,99044.84
2022-12-22T13:51:26.331Z,99060.47
2022-12-22T13:56:43.351Z,99066.56
2022-12-22T14:01:52.789Z,99086.03
2022-12-22T14:07:01.167Z,99092.59
2022-12-22T14:12:17.667Z,99106.84
2022-12-22T14:17:35.824Z,99117.69
2022-12-22T14:22:51.418Z,99128.97
2022-12-22T14:27:57.800Z,99139.63
2022-12-22T14:33:19.347Z,99152.53
2022-12-22T14:38:27.670Z,99161.22
2022-12-22T14:43:35.800Z,99163.72
2022-12-22T14:48:50.107Z,99176.63
2022-12-22T14:53:58.525Z,99197.75
2022-12-22T14:59:24.575Z,99209.38
2022-12-22T15:04:32.816Z,99234.41
2022-12-22T15:15:18.054Z,99267.63
2022-12-22T15:20:25.715Z,99279.56
2022-12-22T15:25:41.448Z,99290.03
2022-12-22T15:30:45.846Z,99299.34
2022-12-22T15:35:50.694Z,99311.44
2022-12-22T15:40:59.131Z,99313.56
2022-12-22T15:46:06.721Z,99314.19
2022-12-22T15:51:22.189Z,99320.41
2022-12-22T15:56:33.606Z,99333.31
2022-12-22T16:01:38.132Z,99341.09
2022-12-22T16:06:43.011Z,99347.22
2022-12-22T16:11:49.218Z,99356.25
2022-12-22T16:16:53.705Z,99361.56
2022-12-22T16:21:58.656Z,99364.81
2022-12-22T16:27:10.412Z,99365.44
2022-12-22T16:32:28.667Z,99380.94
2022-12-22T16:37:33.798Z,99389.19
2022-12-22T16:48:15.520Z,99405.09
2022-12-22T16:53:23.985Z,99408.03
2022-12-22T16:58:33.925Z,99402.47
2022-12-22T17:03:44.278Z,99409.13
2022-12-22T17:08:53.588Z,99423.84
2022-12-22T17:14:06.632Z,99432.22
2022-12-22T17:19:14.225Z,99425.53
2022-12-22T17:24:28.111Z,99430.53
2022-12-22T17:29:38.879Z,99438.81
2022-12-22T17:34:44.009Z,99420.75
2022-12-22T17:39:52.485Z,99427.50
2022-12-22T17:44:59.996Z,99416.25
2022-12-22T17:50:04.550Z,99417.66
2022-12-22T17:56:06.036Z,99421.53
2022-12-22T18:01:03.418Z,99416.75
2022-12-22T18:06:14.398Z,99416.06
2022-12-22T18:11:25.465Z,99416.19
2022-12-22T18:16:45.750Z,99408.66
2022-12-22T18:21:53.302Z,99410.63
2022-12-22T18:27:02.018Z,99408.06
2022-12-22T18:32:25.230Z,99404.81
2022-12-22T18:37:39.392Z,99409.06
2022-12-22T18:42:46.771Z,99417.03
2022-12-22T18:47:58.601Z,99412.09
2022-12-22T18:53:26.781Z,99409.09
2022-12-22T18:58:32.251Z,99415.66
2022-12-22T19:03:39.466Z,99428.56
2022-12-22T19:08:53.762Z,99420.53
2022-12-22T19:13:59.793Z,99409.41
2022-12-22T19:19:10.906Z,99403.53
2022-12-22T19:24:24.235Z,99406.13
2022-12-22T19:29:30.665Z,99417.66
2022-12-22T19:34:45.067Z,99396.59
2022-12-22T19:39:55.526Z,99395.91
2022-12-22T19:45:05.387Z,99380.50
2022-12-22T19:50:26.984Z,99381.34
2022-12-22T19:55:41.806Z,99393.44
2022-12-22T20:01:11.341Z,99387.97
2022-12-22T20:06:23.095Z,99395.16
2022-12-22T20:11:29.702Z,99398.97
2022-12-22T20:16:46.753Z,99385.09
2022-12-22T20:22:00.991Z,99370.44
2022-12-22T20:27:12.999Z,99364.72
2022-12-22T20:32:28.150Z,99372.94
2022-12-22T20:37:40.631Z,99363.34
2022-12-22T20:42:48.231Z,99365.13
2022-12-22T20:47:56.043Z,99356.75
2022-12-22T20:53:19.266Z,99343.81
2022-12-22T20:58:35.950Z,99345.19
2022-12-22T21:03:43.333Z,99347.63
2022-12-22T21:08:53.342Z,99352.78
2022-12-22T21:14:03.088Z,99354.66
2022-12-22T21:19:08.884Z,99354.09
2022-12-22T21:24:19.304Z,99348.13
2022-12-22T21:29:31.837Z,99341.22
2022-12-22T21:34:54.656Z,99335.75
2022-12-22T21:40:04.287Z,99316.88
2022-12-22T21:45:14.591Z,99318.09
2022-12-22T21:50:41.672Z,99310.16
2022-12-22T21:55:53.163Z,99309.72
2022-12-22T22:01:03.644Z,99296.38
2022-12-22T22:06:16.864Z,99301.22
2022-12-22T22:16:48.099Z,99293.94
2022-12-22T22:21:52.355Z,99295.25
2022-12-22T22:27:06.003Z,99276.56
2022-12-22T22:32:16.104Z,99265.28
2022-12-22T22:37:20.632Z,99258.41
2022-12-22T22:42:34.031Z,99261.88
2022-12-22T22:47:38.682Z,99243.06
2022-12-22T22:52:46.283Z,99236.19
2022-12-22T22:57:52.668Z,99227.53
2022-12-22T23:03:02.735Z,99218.06
2022-12-22T23:08:09.298Z,99210.09
2022-12-22T23:13:16.160Z,99199.50
2022-12-22T23:18:25.671Z,99194.94
2022-12-22T23:23:34.426Z,99188.25
2022-12-22T23:29:03.682Z,99183.25
2022-12-22T23:34:09.197Z,99171.16
2022-12-22T23:39:17.914Z,99165.28
2022-12-22T23:44:31.923Z,99157.72
2022-12-22T23:49:41.139Z,99144.66
2022-12-22T23:54:59.346Z,99137.50
